Time;durP1;ratioP1;P1;durP2;ratioP2;P2;SDS_P1;SDS_P2;PMS_P1;PMS_P2;Temp;Humidity;BMP_temperature;BMP_pressure;BME280_temperature;BME280_humidity;BME280_pressure;Samples;Min_cycle;Max_cycle;Signal;HPM_P1;HPM_P2
2022/08/16 00:02:16;;;;;;;4.90;4.50;;;17.70;99.90;;;;;;5082779;28;20619;-82
2022/08/16 00:04:44;;;;;;;5.47;4.60;;;17.70;99.90;;;;;;5081712;28;21177;-82
2022/08/16 00:07:11;;;;;;;6.20;5.00;;;17.70;99.90;;;;;;5081707;28;20654;-81
2022/08/16 00:09:38;;;;;;;4.67;4.37;;;17.70;99.90;;;;;;5086230;28;20632;-82
2022/08/16 00:12:05;;;;;;;5.27;4.87;;;17.70;99.90;;;;;;5078861;28;20635;-82
2022/08/16 00:14:33;;;;;;;5.23;4.83;;;17.70;99.90;;;;;;5082881;28;20625;-80
2022/08/16 00:17:00;;;;;;;6.27;4.53;;;17.70;99.90;;;;;;5082778;28;20657;-80
2022/08/16 00:19:31;;;;;;;4.50;4.20;;;17.70;99.90;;;;;;5079061;28;20628;-80
2022/08/16 00:21:59;;;;;;;4.23;3.93;;;17.70;99.90;;;;;;5083924;28;20619;-80
2022/08/16 00:24:28;;;;;;;4.10;3.70;;;17.70;99.90;;;;;;5083960;28;20629;-81
2022/08/16 00:26:56;;;;;;;4.07;3.67;;;17.60;99.90;;;;;;5082395;28;20654;-82
2022/08/16 00:29:22;;;;;;;4.00;3.20;;;17.60;99.90;;;;;;5083583;28;20703;-80
2022/08/16 00:31:51;;;;;;;3.50;3.20;;;17.50;99.90;;;;;;5083708;28;20643;-80
2022/08/16 00:34:19;;;;;;;2.97;2.77;;;17.50;99.90;;;;;;5082015;28;20631;-80
2022/08/16 00:36:46;;;;;;;3.50;3.20;;;17.50;99.90;;;;;;5085041;28;20624;-81
2022/08/16 00:39:15;;;;;;;4.07;3.73;;;17.50;99.90;;;;;;5082008;28;20674;-80
2022/08/16 00:41:43;;;;;;;3.90;3.60;;;17.50;99.90;;;;;;5081468;28;20644;-81
2022/08/16 00:44:11;;;;;;;4.00;3.70;;;17.50;99.90;;;;;;5078285;28;20624;-80
2022/08/16 00:46:43;;;;;;;3.90;3.60;;;17.40;99.90;;;;;;5080798;28;20643;-81
2022/08/16 00:49:13;;;;;;;4.10;3.70;;;17.50;99.90;;;;;;5076652;28;20645;-80
2022/08/16 00:51:41;;;;;;;5.90;4.40;;;17.50;99.90;;;;;;5085857;28;21008;-81
2022/08/16 00:54:08;;;;;;;5.37;4.93;;;17.50;99.90;;;;;;5083835;28;20715;-81
2022/08/16 00:56:39;;;;;;;5.20;4.60;;;17.40;99.90;;;;;;5091686;28;20711;-80
2022/08/16 00:59:08;;;;;;;4.67;4.27;;;17.40;99.90;;;;;;5101343;28;21214;-81
2022/08/16 01:01:35;;;;;;;4.10;3.80;;;17.30;99.90;;;;;;5101119;28;20656;-80
2022/08/16 01:04:03;;;;;;;4.43;4.13;;;17.30;99.90;;;;;;5102580;28;20654;-81
2022/08/16 01:06:29;;;;;;;4.50;4.10;;;17.30;99.90;;;;;;5103540;28;20631;-80
2022/08/16 01:08:58;;;;;;;4.20;3.83;;;17.30;99.90;;;;;;5106248;28;20639;-81
2022/08/16 01:11:26;;;;;;;3.70;3.40;;;17.20;99.90;;;;;;5105028;28;20648;-81
2022/08/16 01:14:00;;;;;;;4.37;4.07;;;17.20;99.90;;;;;;5104963;28;20619;-81
2022/08/16 01:16:28;;;;;;;5.27;4.80;;;17.20;99.90;;;;;;5104223;28;20613;-80
2022/08/16 01:19:01;;;;;;;5.80;3.67;;;17.20;99.90;;;;;;5100923;28;20660;-80
2022/08/16 01:21:38;;;;;;;4.40;4.03;;;17.20;99.90;;;;;;5093596;28;20647;-81
2022/08/16 01:24:18;;;;;;;4.57;4.17;;;17.10;99.90;;;;;;5084960;28;21330;-80
2022/08/16 01:26:48;;;;;;;4.37;4.07;;;17.10;99.90;;;;;;5084036;28;20630;-81
2022/08/16 01:29:21;;;;;;;4.37;4.07;;;17.10;99.90;;;;;;5087662;28;20726;-81
2022/08/16 01:31:49;;;;;;;4.30;4.00;;;17.10;99.90;;;;;;5087296;28;20780;-81
2022/08/16 01:34:18;;;;;;;4.37;4.07;;;17.00;99.90;;;;;;5082259;28;20634;-81
2022/08/16 01:36:46;;;;;;;4.63;4.33;;;17.00;99.90;;;;;;5085844;28;20629;-81
2022/08/16 01:39:17;;;;;;;4.27;3.90;;;17.00;99.90;;;;;;5085489;28;20648;-81
2022/08/16 01:41:44;;;;;;;4.50;4.20;;;17.00;99.90;;;;;;5087436;28;21029;-81
2022/08/16 01:44:11;;;;;;;4.90;4.20;;;17.00;99.90;;;;;;5087653;28;20705;-81
2022/08/16 01:46:40;;;;;;;5.30;4.80;;;16.90;99.90;;;;;;5088900;28;20636;-81
2022/08/16 01:49:10;;;;;;;6.27;4.40;;;16.90;99.90;;;;;;5086789;28;20624;-81
2022/08/16 01:51:38;;;;;;;5.23;4.90;;;16.90;99.90;;;;;;5081753;28;20663;-81
2022/08/16 01:54:06;;;;;;;6.17;4.50;;;16.90;99.90;;;;;;5080502;28;20616;-81
2022/08/16 01:56:35;;;;;;;5.40;4.90;;;16.90;99.90;;;;;;5090405;28;20996;-81
2022/08/16 01:59:05;;;;;;;6.23;5.07;;;16.80;99.90;;;;;;5086728;28;20671;-81
2022/08/16 02:01:32;;;;;;;5.00;4.60;;;16.80;99.90;;;;;;5086066;28;20648;-81
2022/08/16 02:03:59;;;;;;;4.93;4.53;;;16.80;99.90;;;;;;5086015;28;20628;-81
2022/08/16 02:06:27;;;;;;;5.30;4.90;;;16.80;99.90;;;;;;5086167;28;20624;-81
2022/08/16 02:08:54;;;;;;;4.97;4.57;;;16.70;99.90;;;;;;5088363;28;20646;-81
2022/08/16 02:11:22;;;;;;;4.13;3.83;;;16.70;99.90;;;;;;5084942;28;20648;-81
2022/08/16 02:13:51;;;;;;;4.60;4.30;;;16.70;99.90;;;;;;5086101;28;20623;-81
2022/08/16 02:16:19;;;;;;;5.07;4.67;;;16.70;99.90;;;;;;5084789;28;21170;-80
2022/08/16 02:18:46;;;;;;;6.63;6.00;;;16.70;99.90;;;;;;5083859;28;20659;-81
2022/08/16 02:21:14;;;;;;;4.67;4.27;;;16.70;99.90;;;;;;5085052;28;20647;-81
2022/08/16 02:23:42;;;;;;;4.47;4.13;;;16.70;99.90;;;;;;5079768;28;20633;-81
2022/08/16 02:26:09;;;;;;;4.50;4.20;;;16.80;99.90;;;;;;5083166;28;20631;-82
2022/08/16 02:28:36;;;;;;;4.50;4.20;;;16.80;99.90;;;;;;5084181;28;20612;-82
2022/08/16 02:31:08;;;;;;;4.80;4.30;;;16.80;99.90;;;;;;5086737;28;21213;-82
2022/08/16 02:33:35;;;;;;;5.17;4.77;;;16.90;99.90;;;;;;5085884;28;20612;-82
2022/08/16 02:36:02;;;;;;;5.13;4.63;;;16.90;99.90;;;;;;5086101;28;20628;-82
2022/08/16 02:38:29;;;;;;;5.60;5.10;;;16.90;99.90;;;;;;5083340;28;20665;-82
2022/08/16 02:40:57;;;;;;;5.10;4.80;;;16.90;99.90;;;;;;5086628;28;20651;-82
2022/08/16 02:43:25;;;;;;;5.60;5.20;;;17.00;99.90;;;;;;5083724;28;20632;-83
2022/08/16 02:45:52;;;;;;;6.23;5.30;;;16.90;99.90;;;;;;5082968;28;20631;-82
2022/08/16 02:48:20;;;;;;;5.43;4.93;;;16.90;99.90;;;;;;5084578;28;20646;-82
2022/08/16 02:50:47;;;;;;;5.60;4.70;;;16.90;99.90;;;;;;5086486;28;20652;-82
2022/08/16 02:53:14;;;;;;;5.67;5.20;;;17.00;99.90;;;;;;5083563;28;20982;-82
2022/08/16 02:55:41;;;;;;;5.60;5.20;;;16.90;99.90;;;;;;5080665;28;20652;-82
2022/08/16 02:58:08;;;;;;;6.07;5.57;;;16.90;99.90;;;;;;5080967;28;20662;-83
2022/08/16 03:00:35;;;;;;;5.83;5.33;;;16.90;99.90;;;;;;5080601;28;20651;-82
2022/08/16 03:03:02;;;;;;;6.07;5.10;;;16.90;99.90;;;;;;5083618;28;20626;-82
2022/08/16 03:05:30;;;;;;;6.50;4.90;;;16.90;99.90;;;;;;5082786;28;20702;-82
2022/08/16 03:07:58;;;;;;;6.20;5.70;;;16.90;99.90;;;;;;5087363;28;20626;-82
2022/08/16 03:10:24;;;;;;;6.10;5.60;;;16.90;99.90;;;;;;5085350;28;20659;-82
2022/08/16 03:12:51;;;;;;;6.83;6.33;;;16.90;99.90;;;;;;5085025;28;20628;-82
2022/08/16 03:15:18;;;;;;;6.60;5.60;;;16.90;99.90;;;;;;5083203;28;20624;-82
2022/08/16 03:17:46;;;;;;;6.63;5.50;;;16.90;99.90;;;;;;5083862;28;20619;-83
2022/08/16 03:20:16;;;;;;;5.90;5.50;;;16.80;99.90;;;;;;5083924;28;20660;-82
2022/08/16 03:22:44;;;;;;;5.17;4.87;;;16.80;99.90;;;;;;5082354;28;21004;-82
2022/08/16 03:25:13;;;;;;;7.40;4.97;;;16.70;99.90;;;;;;5082770;28;20976;-81
2022/08/16 03:27:40;;;;;;;5.00;4.57;;;16.70;99.90;;;;;;5081240;28;20621;-81
2022/08/16 03:30:11;;;;;;;6.03;4.60;;;16.60;99.90;;;;;;5082521;28;20655;-81
2022/08/16 03:32:37;;;;;;;5.90;4.23;;;16.60;99.90;;;;;;5084720;28;20628;-81
2022/08/16 03:35:06;;;;;;;6.13;5.57;;;16.60;99.90;;;;;;5083165;28;20627;-81
2022/08/16 03:37:33;;;;;;;5.13;4.73;;;16.60;99.90;;;;;;5084692;28;21057;-81
2022/08/16 03:40:01;;;;;;;5.57;5.17;;;16.50;99.90;;;;;;5083364;28;20672;-81
2022/08/16 03:42:28;;;;;;;6.13;5.63;;;16.60;99.90;;;;;;5083884;28;20637;-81
2022/08/16 03:44:55;;;;;;;5.83;5.23;;;16.50;99.90;;;;;;5080993;28;20624;-81
2022/08/16 03:47:22;;;;;;;4.97;4.70;;;16.50;99.90;;;;;;5083906;28;21166;-82
2022/08/16 03:49:49;;;;;;;5.70;5.20;;;16.50;99.90;;;;;;5084594;28;20660;-81
2022/08/16 03:52:16;;;;;;;5.60;5.10;;;16.40;99.90;;;;;;5082199;28;20669;-80
2022/08/16 03:54:43;;;;;;;6.43;5.60;;;16.50;99.90;;;;;;5085051;28;21188;-81
2022/08/16 03:57:11;;;;;;;5.83;5.33;;;16.40;99.90;;;;;;5082628;28;20669;-82
2022/08/16 03:59:38;;;;;;;6.10;5.17;;;16.40;99.90;;;;;;5083579;28;21008;-81
2022/08/16 04:02:05;;;;;;;6.33;5.57;;;16.40;99.90;;;;;;5084655;28;20638;-82
2022/08/16 04:04:35;;;;;;;5.80;5.43;;;16.50;99.90;;;;;;5080964;28;20633;-81
2022/08/16 04:07:02;;;;;;;6.03;5.63;;;16.40;99.90;;;;;;5084949;28;20636;-81
2022/08/16 04:09:29;;;;;;;6.00;5.53;;;16.40;99.90;;;;;;5084045;28;20629;-81
2022/08/16 04:11:57;;;;;;;6.70;5.60;;;16.40;99.90;;;;;;5084589;28;20647;-81
2022/08/16 04:14:25;;;;;;;7.40;5.97;;;16.30;99.90;;;;;;5081895;28;20629;-81
2022/08/16 04:16:54;;;;;;;5.60;5.00;;;16.30;99.90;;;;;;5083934;28;20724;-81
2022/08/16 04:19:26;;;;;;;5.77;5.37;;;16.30;99.90;;;;;;5080241;28;20710;-82
2022/08/16 04:21:53;;;;;;;9.17;5.80;;;16.30;99.90;;;;;;5082997;28;20652;-82
2022/08/16 04:24:21;;;;;;;6.50;6.00;;;16.20;99.90;;;;;;5082086;28;21027;-81
2022/08/16 04:26:48;;;;;;;5.67;5.20;;;16.20;99.90;;;;;;5079933;28;20969;-80
2022/08/16 04:29:16;;;;;;;5.23;4.83;;;16.20;99.90;;;;;;5082978;28;20632;-81
2022/08/16 04:31:44;;;;;;;6.43;5.80;;;16.30;99.90;;;;;;5084556;28;20648;-81
2022/08/16 04:34:11;;;;;;;5.70;5.20;;;16.30;99.90;;;;;;5080210;28;20643;-81
2022/08/16 04:36:37;;;;;;;5.70;5.20;;;16.30;99.90;;;;;;5084102;28;20820;-81
2022/08/16 04:39:04;;;;;;;6.37;5.87;;;16.30;99.90;;;;;;5082218;28;20667;-80
2022/08/16 04:41:32;;;;;;;6.40;5.80;;;16.30;99.90;;;;;;5088092;28;20651;-80
2022/08/16 04:44:00;;;;;;;6.10;5.50;;;16.40;99.90;;;;;;5085722;28;20636;-80
2022/08/16 04:46:27;;;;;;;7.47;5.07;;;16.40;99.90;;;;;;5084428;28;20629;-80
2022/08/16 04:48:55;;;;;;;5.00;4.60;;;16.50;99.90;;;;;;5086686;28;20624;-80
2022/08/16 04:51:22;;;;;;;6.27;5.70;;;16.50;99.90;;;;;;5087331;28;20665;-80
2022/08/16 04:53:49;;;;;;;6.40;5.40;;;16.60;99.90;;;;;;5082527;28;20625;-80
2022/08/16 04:56:16;;;;;;;6.27;5.67;;;16.60;99.90;;;;;;5085229;28;20710;-80
2022/08/16 04:58:43;;;;;;;6.33;5.93;;;16.70;99.90;;;;;;5084723;28;20678;-80
2022/08/16 05:01:10;;;;;;;6.50;6.00;;;16.70;99.90;;;;;;5087578;28;20721;-80
2022/08/16 05:03:37;;;;;;;6.63;6.00;;;16.80;99.90;;;;;;5086629;28;20650;-81
2022/08/16 05:06:06;;;;;;;6.50;5.87;;;16.80;99.90;;;;;;5084589;28;21178;-79
2022/08/16 05:08:33;;;;;;;6.27;5.67;;;16.90;99.90;;;;;;5087167;28;20643;-80
2022/08/16 05:11:01;;;;;;;6.53;5.93;;;16.90;99.90;;;;;;5087563;28;20655;-80
2022/08/16 05:13:28;;;;;;;6.43;5.47;;;17.00;99.90;;;;;;5084988;28;20617;-81
2022/08/16 05:15:55;;;;;;;6.60;5.17;;;17.10;99.90;;;;;;5087162;28;20620;-81
2022/08/16 05:18:22;;;;;;;5.83;5.37;;;17.10;99.90;;;;;;5082561;28;20638;-81
2022/08/16 05:20:49;;;;;;;5.93;5.43;;;17.20;99.90;;;;;;5088681;28;21199;-81
2022/08/16 05:23:17;;;;;;;6.60;6.07;;;17.20;99.90;;;;;;5086256;28;20640;-81
2022/08/16 05:25:44;;;;;;;6.07;5.43;;;17.30;99.90;;;;;;5081525;28;20636;-81
2022/08/16 05:28:11;;;;;;;6.77;6.17;;;17.30;99.90;;;;;;5082818;28;20633;-81
2022/08/16 05:30:38;;;;;;;6.10;5.70;;;17.30;99.90;;;;;;5086034;28;20662;-81
2022/08/16 05:33:06;;;;;;;5.13;4.73;;;17.40;99.90;;;;;;5085745;28;20627;-81
2022/08/16 05:35:32;;;;;;;6.97;6.30;;;17.50;99.90;;;;;;5085898;28;20635;-81
2022/08/16 05:37:59;;;;;;;5.60;5.20;;;17.50;99.90;;;;;;5087542;28;20632;-81
2022/08/16 05:40:28;;;;;;;6.13;5.70;;;17.60;99.90;;;;;;5086022;28;20687;-81
2022/08/16 05:42:54;;;;;;;5.70;5.13;;;17.60;99.90;;;;;;5086173;28;21202;-81
2022/08/16 05:45:21;;;;;;;6.33;5.83;;;17.60;99.90;;;;;;5083769;28;20638;-81
2022/08/16 05:47:48;;;;;;;6.87;6.37;;;17.70;99.90;;;;;;5087135;28;21201;-81
2022/08/16 05:50:16;;;;;;;6.60;6.10;;;17.70;99.90;;;;;;5085303;28;20643;-81
2022/08/16 05:52:43;;;;;;;5.70;5.30;;;17.70;99.90;;;;;;5085584;28;20982;-81
2022/08/16 05:55:10;;;;;;;7.13;6.67;;;17.80;99.90;;;;;;5086177;28;20643;-81
2022/08/16 05:57:38;;;;;;;6.53;5.87;;;17.90;99.90;;;;;;5086446;28;20651;-80
2022/08/16 06:00:08;;;;;;;6.50;6.00;;;17.90;99.90;;;;;;5085868;28;21459;-80
2022/08/16 06:02:34;;;;;;;9.43;5.07;;;17.90;99.90;;;;;;5085747;28;20628;-80
2022/08/16 06:05:01;;;;;;;5.97;5.57;;;18.00;99.90;;;;;;5083915;28;20620;-82
2022/08/16 06:07:28;;;;;;;6.47;5.80;;;18.10;99.90;;;;;;5085911;28;20644;-82
2022/08/16 06:09:58;;;;;;;7.03;6.00;;;18.10;99.90;;;;;;5083761;28;20651;-82
2022/08/16 06:12:25;;;;;;;6.23;5.63;;;18.20;99.90;;;;;;5084345;28;20621;-82
2022/08/16 06:14:56;;;;;;;6.97;6.07;;;18.30;99.90;;;;;;5084220;28;20631;-81
2022/08/16 06:17:22;;;;;;;6.43;5.13;;;18.30;99.90;;;;;;5082941;28;20616;-81
2022/08/16 06:19:49;;;;;;;5.80;5.30;;;18.40;99.90;;;;;;5083334;28;20668;-82
2022/08/16 06:22:16;;;;;;;6.37;5.77;;;18.50;99.90;;;;;;5075975;28;20619;-82
2022/08/16 06:24:43;;;;;;;5.60;5.10;;;18.60;99.90;;;;;;5081802;28;20623;-82
2022/08/16 06:27:10;;;;;;;7.37;5.53;;;18.70;99.90;;;;;;5081753;28;20634;-82
2022/08/16 06:29:37;;;;;;;6.83;5.70;;;18.70;99.90;;;;;;5087624;28;20631;-80
2022/08/16 06:32:06;;;;;;;6.60;4.90;;;18.80;99.90;;;;;;5085428;28;20642;-80
2022/08/16 06:34:33;;;;;;;6.70;4.80;;;18.90;99.90;;;;;;5083735;28;20664;-80
2022/08/16 06:36:59;;;;;;;4.87;4.03;;;18.90;99.90;;;;;;5085298;28;20634;-80
2022/08/16 06:39:26;;;;;;;8.57;4.80;;;19.00;99.90;;;;;;5085291;28;20676;-80
2022/08/16 06:41:53;;;;;;;6.80;6.20;;;19.10;99.90;;;;;;5085593;28;21080;-81
2022/08/16 06:44:20;;;;;;;6.03;5.23;;;19.10;99.90;;;;;;5082575;28;20635;-80
2022/08/16 06:46:47;;;;;;;4.60;4.17;;;19.10;99.90;;;;;;5080391;28;20615;-82
2022/08/16 06:49:15;;;;;;;6.27;4.33;;;19.10;99.90;;;;;;5084165;28;20626;-81
2022/08/16 06:51:42;;;;;;;5.23;4.73;;;19.20;99.90;;;;;;5086943;28;20644;-82
2022/08/16 06:54:10;;;;;;;6.10;5.50;;;19.30;99.90;;;;;;5084643;28;20643;-80
2022/08/16 06:56:37;;;;;;;5.43;5.03;;;19.40;99.90;;;;;;5085298;28;21519;-81
2022/08/16 06:59:04;;;;;;;7.70;5.60;;;19.50;99.90;;;;;;5081177;28;20704;-80
2022/08/16 07:01:31;;;;;;;5.37;4.97;;;19.60;99.90;;;;;;5081578;28;21023;-80
2022/08/16 07:03:58;;;;;;;5.80;4.50;;;19.70;99.90;;;;;;5075705;28;20589;-80
2022/08/16 07:06:26;;;;;;;4.70;4.30;;;19.70;99.90;;;;;;5081914;28;21137;-80
2022/08/16 07:08:54;;;;;;;16.20;4.83;;;19.80;99.90;;;;;;5084249;28;20624;-81
2022/08/16 07:11:21;;;;;;;6.17;5.57;;;20.00;99.90;;;;;;5083697;28;20659;-80
2022/08/16 07:13:49;;;;;;;5.63;4.00;;;20.10;99.90;;;;;;5085829;28;21015;-81
2022/08/16 07:16:16;;;;;;;4.50;3.90;;;20.20;99.90;;;;;;5092053;28;20624;-81
2022/08/16 07:18:43;;;;;;;5.00;3.43;;;20.30;99.90;;;;;;5081476;28;20620;-81
2022/08/16 07:21:11;;;;;;;7.00;4.40;;;20.40;99.90;;;;;;5081184;28;21225;-81
2022/08/16 07:23:42;;;;;;;4.67;4.37;;;20.50;99.90;;;;;;5079675;28;20620;-81
2022/08/16 07:26:13;;;;;;;3.93;3.63;;;20.60;99.90;;;;;;5080547;28;20620;-81
2022/08/16 07:28:39;;;;;;;4.70;4.30;;;20.70;99.90;;;;;;5083597;28;20608;-81
2022/08/16 07:31:06;;;;;;;5.00;4.03;;;20.80;99.90;;;;;;5078227;28;20655;-81
2022/08/16 07:33:36;;;;;;;6.50;4.50;;;20.90;99.90;;;;;;5079205;28;20988;-81
2022/08/16 07:36:03;;;;;;;4.60;4.30;;;21.00;99.90;;;;;;5080462;28;20726;-81
2022/08/16 07:38:30;;;;;;;4.60;3.73;;;21.10;99.90;;;;;;5078002;28;20652;-81
2022/08/16 07:41:00;;;;;;;7.20;5.03;;;21.20;99.90;;;;;;5080128;28;21251;-81
2022/08/16 07:43:27;;;;;;;16.83;4.10;;;21.30;99.90;;;;;;5083619;28;20628;-81
2022/08/16 07:45:54;;;;;;;4.43;4.03;;;21.40;99.90;;;;;;5083795;28;20666;-81
2022/08/16 07:48:21;;;;;;;4.90;4.47;;;21.50;99.90;;;;;;5083613;28;20635;-80
2022/08/16 07:50:48;;;;;;;5.70;4.57;;;21.60;99.90;;;;;;5084021;28;20647;-81
2022/08/16 07:53:16;;;;;;;5.03;4.57;;;21.60;99.90;;;;;;5083261;28;21158;-80
2022/08/16 07:55:42;;;;;;;4.93;4.63;;;21.60;99.90;;;;;;5083545;28;20631;-81
2022/08/16 07:58:11;;;;;;;4.80;4.37;;;21.60;99.90;;;;;;5079629;28;20628;-81
2022/08/16 08:00:39;;;;;;;4.93;4.53;;;21.70;99.90;;;;;;5083601;28;20683;-81
2022/08/16 08:03:06;;;;;;;5.57;4.60;;;21.80;99.90;;;;;;5080685;28;20697;-80
2022/08/16 08:05:33;;;;;;;5.03;4.63;;;22.00;99.90;;;;;;5074890;28;21007;-80
2022/08/16 08:07:59;;;;;;;6.77;4.50;;;22.10;99.90;;;;;;5084234;28;20616;-80
2022/08/16 08:10:27;;;;;;;4.33;3.93;;;22.20;99.90;;;;;;5081941;28;20629;-80
2022/08/16 08:12:56;;;;;;;4.50;4.10;;;22.40;99.90;;;;;;5083130;28;20608;-80
2022/08/16 08:15:24;;;;;;;4.70;4.37;;;22.50;99.90;;;;;;5083452;28;20620;-80
2022/08/16 08:17:51;;;;;;;5.30;4.90;;;22.60;99.90;;;;;;5082661;28;20702;-80
2022/08/16 08:20:21;;;;;;;3.90;3.60;;;22.60;99.90;;;;;;5078029;28;20660;-81
2022/08/16 08:22:50;;;;;;;5.30;4.20;;;22.70;99.90;;;;;;5081676;28;20635;-80
2022/08/16 08:25:17;;;;;;;6.37;5.00;;;22.90;99.90;;;;;;5077559;28;21014;-81
2022/08/16 08:27:44;;;;;;;4.97;4.57;;;23.00;99.90;;;;;;5082621;28;20627;-80
2022/08/16 08:30:12;;;;;;;5.77;4.57;;;23.10;99.90;;;;;;5079603;28;20723;-80
2022/08/16 08:32:41;;;;;;;6.03;5.20;;;23.20;99.90;;;;;;5077286;28;20624;-80
2022/08/16 08:35:10;;;;;;;5.00;4.47;;;23.20;99.90;;;;;;5082219;28;20652;-80
2022/08/16 08:37:38;;;;;;;5.73;4.70;;;23.40;99.90;;;;;;5084390;28;20636;-80
2022/08/16 08:40:06;;;;;;;4.97;4.43;;;23.50;99.90;;;;;;5082504;28;20648;-80
2022/08/16 08:42:33;;;;;;;7.97;5.03;;;23.60;99.90;;;;;;5084177;28;20637;-80
2022/08/16 08:45:02;;;;;;;4.77;4.37;;;23.70;99.90;;;;;;5077845;28;20640;-80
2022/08/16 08:47:29;;;;;;;5.57;5.07;;;23.90;99.90;;;;;;5081204;28;20629;-80
2022/08/16 08:49:57;;;;;;;5.33;4.23;;;24.10;99.90;;;;;;5078163;28;20620;-80
2022/08/16 08:52:24;;;;;;;5.03;4.60;;;24.40;99.90;;;;;;5080866;28;21025;-80
2022/08/16 08:54:51;;;;;;;5.37;4.80;;;24.30;99.90;;;;;;5080059;28;20650;-80
2022/08/16 08:57:19;;;;;;;6.83;4.80;;;24.50;99.90;;;;;;5081058;28;20631;-80
2022/08/16 08:59:46;;;;;;;5.90;4.70;;;24.60;99.90;;;;;;5079842;28;20750;-80
2022/08/16 09:02:14;;;;;;;5.17;4.77;;;24.60;99.90;;;;;;5082534;28;20647;-80
2022/08/16 09:04:41;;;;;;;7.47;4.57;;;24.70;99.90;;;;;;5077212;28;20604;-80
2022/08/16 09:07:09;;;;;;;5.30;4.53;;;24.80;99.90;;;;;;5076683;28;20643;-80
2022/08/16 09:09:36;;;;;;;5.03;4.70;;;24.80;99.90;;;;;;5083337;28;20632;-80
2022/08/16 09:12:05;;;;;;;34.80;7.50;;;24.90;99.90;;;;;;5078835;28;20647;-80
2022/08/16 09:14:32;;;;;;;6.37;5.23;;;25.00;99.90;;;;;;5076779;28;20628;-79
2022/08/16 09:17:00;;;;;;;5.27;4.83;;;25.00;99.90;;;;;;5078704;28;20681;-82
2022/08/16 09:19:26;;;;;;;5.80;5.40;;;25.00;99.90;;;;;;5081480;28;20655;-80
2022/08/16 09:21:53;;;;;;;5.17;4.77;;;24.80;99.90;;;;;;5083628;28;20764;-79
2022/08/16 09:24:21;;;;;;;6.10;5.20;;;24.90;99.90;;;;;;5076729;28;20638;-82
2022/08/16 09:26:48;;;;;;;5.07;4.43;;;25.00;99.90;;;;;;5080472;28;20620;-79
2022/08/16 09:29:15;;;;;;;5.60;5.10;;;25.00;99.90;;;;;;5086493;28;21263;-81
2022/08/16 09:31:42;;;;;;;5.57;5.00;;;25.10;99.90;;;;;;5084490;28;20750;-81
2022/08/16 09:34:12;;;;;;;6.73;5.50;;;25.10;99.90;;;;;;5084650;28;20632;-80
2022/08/16 09:36:39;;;;;;;6.17;5.30;;;25.30;99.90;;;;;;5080808;28;20671;-81
2022/08/16 09:39:06;;;;;;;5.93;5.00;;;25.50;99.90;;;;;;5085234;28;20616;-80
2022/08/16 09:41:34;;;;;;;7.87;4.83;;;25.60;99.90;;;;;;5086253;28;20683;-81
2022/08/16 09:44:02;;;;;;;6.40;5.40;;;25.70;99.90;;;;;;5083868;28;21283;-81
2022/08/16 09:46:30;;;;;;;5.70;5.20;;;26.00;99.90;;;;;;5084904;28;20624;-81
2022/08/16 09:48:57;;;;;;;11.23;4.27;;;26.20;99.90;;;;;;5081252;28;20747;-81
2022/08/16 09:51:25;;;;;;;6.40;4.67;;;26.10;99.90;;;;;;5080817;28;20653;-81
2022/08/16 09:53:54;;;;;;;5.53;5.03;;;26.20;99.90;;;;;;5085231;28;20719;-81
2022/08/16 09:56:25;;;;;;;5.40;4.90;;;26.20;99.90;;;;;;5082690;28;20640;-81
2022/08/16 09:58:54;;;;;;;5.17;4.77;;;26.30;99.90;;;;;;5084609;28;20624;-81
2022/08/16 10:01:22;;;;;;;6.60;4.90;;;26.30;99.90;;;;;;5084824;28;20683;-81
2022/08/16 10:03:48;;;;;;;5.17;4.37;;;26.40;99.90;;;;;;5082237;28;20635;-81
2022/08/16 10:06:15;;;;;;;5.47;5.07;;;26.40;99.90;;;;;;5082715;28;20647;-80
2022/08/16 10:08:42;;;;;;;7.87;4.93;;;26.40;99.90;;;;;;5087728;28;20632;-81
2022/08/16 10:13:54;;;;;;;4.60;4.20;;;26.40;99.40;;;;;;5082913;28;20658;-81
2022/08/16 10:16:22;;;;;;;4.53;4.13;;;26.50;96.60;;;;;;5084164;28;20650;-81
2022/08/16 10:18:49;;;;;;;4.60;4.20;;;26.60;94.40;;;;;;5080951;28;21201;-81
2022/08/16 10:21:16;;;;;;;4.40;4.00;;;26.80;97.50;;;;;;5085181;28;21037;-81
2022/08/16 10:23:43;;;;;;;5.03;4.60;;;27.10;97.00;;;;;;5085467;28;20630;-81
2022/08/16 10:26:10;;;;;;;5.60;4.13;;;27.40;91.50;;;;;;5084304;28;20634;-81
2022/08/16 10:28:37;;;;;;;4.80;4.13;;;27.40;90.10;;;;;;5086087;28;20632;-81
2022/08/16 10:31:08;;;;;;;5.20;4.20;;;27.50;87.40;;;;;;5085546;28;20648;-81
2022/08/16 10:33:36;;;;;;;5.13;4.73;;;27.60;87.60;;;;;;5083563;28;20676;-81
2022/08/16 10:36:06;;;;;;;4.30;3.90;;;27.40;87.30;;;;;;5083675;28;20624;-81
2022/08/16 10:38:34;;;;;;;6.50;4.80;;;27.30;90.10;;;;;;5083914;28;20674;-81
2022/08/16 10:41:01;;;;;;;5.70;4.23;;;27.70;91.70;;;;;;5084679;28;20703;-81
2022/08/16 10:43:29;;;;;;;5.50;4.40;;;28.00;87.30;;;;;;5081704;28;21172;-81
2022/08/16 10:45:56;;;;;;;4.87;4.47;;;28.40;83.80;;;;;;5086524;28;20619;-81
2022/08/16 10:48:26;;;;;;;4.23;3.80;;;28.50;80.90;;;;;;5083882;28;20719;-81
2022/08/16 10:50:53;;;;;;;5.17;4.80;;;28.60;80.20;;;;;;5080480;28;20644;-81
2022/08/16 10:53:20;;;;;;;4.10;3.53;;;28.40;79.70;;;;;;5084611;28;20632;-81
2022/08/16 10:55:47;;;;;;;4.77;4.27;;;28.40;79.40;;;;;;5085899;28;20634;-81
2022/08/16 10:58:15;;;;;;;4.87;4.33;;;28.40;78.10;;;;;;5079548;28;20636;-81
2022/08/16 11:00:43;;;;;;;4.63;4.37;;;28.50;78.80;;;;;;5085261;28;20671;-81
2022/08/16 11:03:10;;;;;;;4.47;4.17;;;28.50;79.80;;;;;;5084129;28;20843;-81
2022/08/16 11:05:42;;;;;;;5.70;3.90;;;28.60;79.80;;;;;;5084004;28;20624;-81
2022/08/16 11:08:11;;;;;;;6.80;4.07;;;28.50;80.20;;;;;;5082589;28;20632;-81
2022/08/16 11:10:40;;;;;;;4.60;4.17;;;28.80;82.50;;;;;;5087287;28;20648;-82
2022/08/16 11:13:08;;;;;;;4.13;3.83;;;28.90;76.50;;;;;;5093872;28;20624;-82
2022/08/16 11:15:36;;;;;;;4.57;4.30;;;29.20;74.80;;;;;;5101866;28;20616;-81
2022/08/16 11:18:03;;;;;;;6.20;4.10;;;29.50;75.20;;;;;;5083842;28;20620;-81
2022/08/16 11:20:30;;;;;;;4.87;3.80;;;29.70;71.90;;;;;;5080656;28;20683;-81
2022/08/16 11:22:58;;;;;;;4.57;4.17;;;30.20;73.00;;;;;;5085632;28;20634;-81
2022/08/16 11:25:27;;;;;;;6.83;4.07;;;30.50;69.60;;;;;;5081187;28;20680;-81
2022/08/16 11:27:55;;;;;;;6.17;5.53;;;30.90;67.00;;;;;;5084777;28;20621;-81
2022/08/16 11:30:23;;;;;;;4.80;4.50;;;31.30;64.00;;;;;;5082422;28;20651;-81
2022/08/16 11:32:49;;;;;;;5.20;4.80;;;31.10;62.80;;;;;;5084508;28;20623;-81
2022/08/16 11:35:19;;;;;;;5.27;4.67;;;31.00;61.50;;;;;;5082600;28;20624;-80
2022/08/16 11:37:48;;;;;;;5.37;5.00;;;31.10;58.40;;;;;;5081977;28;20619;-83
2022/08/16 11:40:16;;;;;;;5.80;5.40;;;31.30;58.30;;;;;;5080216;28;21173;-82
2022/08/16 11:42:43;;;;;;;5.37;5.07;;;31.60;57.10;;;;;;5085333;28;20624;-81
2022/08/16 11:45:11;;;;;;;4.43;4.03;;;31.50;56.40;;;;;;5082148;28;20612;-83
2022/08/16 11:47:38;;;;;;;5.23;4.93;;;31.60;56.00;;;;;;5080358;28;20841;-83
2022/08/16 11:50:07;;;;;;;4.90;4.70;;;31.70;56.00;;;;;;5083044;28;20696;-81
2022/08/16 11:52:35;;;;;;;5.30;4.90;;;31.70;55.40;;;;;;5081755;28;20678;-80
2022/08/16 11:55:03;;;;;;;4.60;4.20;;;31.70;55.20;;;;;;5083762;28;20991;-80
2022/08/16 11:57:31;;;;;;;4.67;4.37;;;32.20;56.30;;;;;;5079834;28;20621;-81
2022/08/16 11:59:59;;;;;;;4.37;3.80;;;32.40;55.00;;;;;;5082959;28;20628;-80
2022/08/16 12:02:26;;;;;;;3.40;3.10;;;32.70;53.70;;;;;;5084455;28;20682;-81
2022/08/16 12:04:53;;;;;;;4.30;3.90;;;33.00;53.40;;;;;;5081523;28;20616;-80
2022/08/16 12:07:20;;;;;;;4.57;3.77;;;33.10;51.90;;;;;;5083991;28;20651;-80
2022/08/16 12:09:48;;;;;;;3.57;3.30;;;33.40;52.50;;;;;;5084416;28;20644;-80
2022/08/16 12:12:15;;;;;;;4.97;3.93;;;33.80;52.80;;;;;;5082739;28;20643;-80
2022/08/16 12:14:43;;;;;;;3.90;3.60;;;34.30;50.90;;;;;;5083492;28;20630;-80
2022/08/16 12:17:13;;;;;;;4.60;3.80;;;34.40;48.60;;;;;;5080338;28;20628;-81
2022/08/16 12:19:40;;;;;;;4.00;3.70;;;34.30;47.80;;;;;;5079468;28;21229;-80
2022/08/16 12:22:07;;;;;;;3.80;3.13;;;34.60;47.10;;;;;;5084403;28;20770;-80
2022/08/16 12:24:34;;;;;;;4.47;3.10;;;34.70;46.30;;;;;;5084004;28;20615;-80
2022/08/16 12:27:02;;;;;;;3.90;3.60;;;34.70;46.30;;;;;;5082721;28;20619;-83
2022/08/16 12:29:29;;;;;;;4.37;3.10;;;34.80;46.00;;;;;;5083946;28;20647;-81
2022/08/16 12:31:57;;;;;;;3.40;3.10;;;35.20;45.30;;;;;;5083569;28;20710;-81
2022/08/16 12:34:24;;;;;;;6.00;2.70;;;35.20;44.20;;;;;;5081645;28;20686;-80
2022/08/16 12:36:51;;;;;;;3.20;2.90;;;35.40;44.00;;;;;;5079591;28;20206;-81
2022/08/16 12:39:19;;;;;;;4.50;3.17;;;35.40;44.20;;;;;;5082017;28;20198;-83
2022/08/16 12:41:46;;;;;;;4.07;3.20;;;35.60;44.20;;;;;;5084481;28;20232;-80
2022/08/16 12:44:14;;;;;;;3.70;3.43;;;36.00;44.40;;;;;;5083309;28;20205;-81
2022/08/16 12:46:41;;;;;;;3.60;3.30;;;35.60;43.10;;;;;;5082261;28;20280;-83
2022/08/16 12:49:10;;;;;;;3.67;3.20;;;35.40;43.10;;;;;;5083016;28;20201;-83
2022/08/16 12:51:39;;;;;;;3.43;3.13;;;34.70;42.60;;;;;;5081971;28;20245;-84